Natalia, Texas
Current Conditions -  °F | °C
As of 7:15 AM on Wednesday 22 Oct 2014 (Local Time) from KCVB Reporting Station
Clear Clear  
Wind Chill: 62°   Ceiling: Unl
Heat Index: 62°   Visibility: 10mi
Dew Point: 51°   Wind: 3mph
Humidity: 68%   Direction: 310°NW
Pressure: 30.09"   Gusts: NA
Location:  29.19°N, 98.86°W
Report Text: KCVB 221215Z AUTO 31003KT 10SM CLR 17/11 A3009 RMK AO2 T01650105
Loading
Personal Weather Stations






























Interactive Weather Map
Tropical Storm Tracking
New forecast layout! Learn more

10-Day Weather Forecast

Advertisements
Track Severe Weather on mobile